Humidity-temperature Sensor

Selected Measurement Type: Air Temperature

 
Air Temperature [°C]     6 entries per hour
Showing data from 11/3/2021 (00:00:00 Z) to 10/31/2021 (00:01:00 Z)
Previous Next [ Day | 3-Days | 7-Days ]
First Last
Prev [ Day | 3-Days | 7-Days ] Next
First Last

Start Time:     :
End Time:     :     
Time (in GMT) :00 :50 :40 :30 :20 :10
Previous Next [ Day | 3-Days | 7-Days ]
First Last
Prev [ Day | 3-Days | 7-Days ] Next
First Last


123 => good data
MM => data is determined as missing
-- => data not received/configured
Back to Top Back to Top
11/3/2021 00:00 to 23:10 23.69 23.54 23.49 23.66 23.67 23.57
11/2/2021 23:00 to 22:10 23.54 23.63 23.67 23.66 23.59 23.63
11/2/2021 22:00 to 21:10 23.63 23.45 23.52 23.44 23.36 23.44
11/2/2021 21:00 to 20:10 23.00 22.94 23.50 23.58 23.59 23.59
11/2/2021 20:00 to 19:10 23.67 23.77 23.89 23.78 23.75 23.81
11/2/2021 19:00 to 18:10 23.77 23.60 24.04 24.14 24.20 24.06
11/2/2021 18:00 to 17:10 24.26 24.01 24.12 24.06 23.85 23.82
11/2/2021 17:00 to 16:10 23.64 23.79 23.80 24.06 23.96 23.95
11/2/2021 16:00 to 15:10 23.93 23.88 23.79 23.66 23.59 23.48
11/2/2021 15:00 to 14:10 23.25 23.31 23.08 23.10 23.03 22.95
11/2/2021 14:00 to 13:10 22.76 22.33 22.42 22.54 22.70 22.73
11/2/2021 13:00 to 12:10 23.18 23.09 23.23 23.58 23.82 23.94
11/2/2021 12:00 to 11:10 23.86 23.74 23.25 23.22 23.05 22.91
11/2/2021 11:00 to 10:10 22.82 22.82 22.96 23.22 23.43 23.51
11/2/2021 10:00 to 9:10 23.37 23.32 23.35 23.38 23.54 23.45
11/2/2021 09:00 to 8:10 23.45 23.53 23.46 23.53 23.51 23.50
11/2/2021 08:00 to 7:10 23.43 23.40 23.54 23.58 23.55 23.52
11/2/2021 07:00 to 6:10 23.71 23.58 23.41 23.61 23.47 23.42
11/2/2021 06:00 to 5:10 23.57 23.29 23.58 23.54 23.51 23.60
11/2/2021 05:00 to 4:10 23.51 23.58 23.59 23.69 23.68 23.59
11/2/2021 04:00 to 3:10 23.70 23.56 23.50 23.45 23.82 23.81
11/2/2021 03:00 to 2:10 23.65 23.51 23.50 23.46 23.47 23.47
11/2/2021 02:00 to 1:10 23.50 23.62 23.48 23.63 23.59 23.62
11/2/2021 01:00 to 0:10 23.72 23.77 23.78 23.58 23.88 23.78
11/2/2021 00:00 to 23:10 24.00 23.76 23.81 23.78 23.77 23.78
11/1/2021 23:00 to 22:10 23.80 23.73 23.66 23.66 23.68 23.69
11/1/2021 22:00 to 21:10 23.56 23.58 23.64 23.66 23.73 23.67
11/1/2021 21:00 to 20:10 23.72 23.73 23.61 23.66 23.68 23.64
11/1/2021 20:00 to 19:10 23.68 23.52 23.54 23.65 23.55 23.54
11/1/2021 19:00 to 18:10 23.49 23.47 23.50 23.55 23.67 23.50
11/1/2021 18:00 to 17:10 23.54 23.71 23.56 23.66 23.67 23.62
11/1/2021 17:00 to 16:10 23.54 23.47 23.49 23.59 23.36 23.32
11/1/2021 16:00 to 15:10 23.54 23.63 23.43 23.46 23.39 23.76
11/1/2021 15:00 to 14:10 23.42 23.35 23.01 22.95 23.43 23.30
11/1/2021 14:00 to 13:10 23.36 23.12 23.31 23.30 22.93 23.05
11/1/2021 13:00 to 12:10 22.94 23.14 22.97 23.06 23.03 23.05
11/1/2021 12:00 to 11:10 22.96 23.04 22.95 22.90 23.02 22.87
11/1/2021 11:00 to 10:10 22.95 22.97 22.86 22.97 22.89 23.05
11/1/2021 10:00 to 9:10 22.96 22.94 22.98 22.90 23.06 22.96
11/1/2021 09:00 to 8:10 23.02 23.01 22.87 22.87 23.07 23.01
11/1/2021 08:00 to 7:10 23.06 23.07 23.04 23.12 23.08 23.14
11/1/2021 07:00 to 6:10 23.09 23.11 23.12 23.26 23.23 23.17
11/1/2021 06:00 to 5:10 23.22 23.14 23.21 23.29 23.36 23.33
11/1/2021 05:00 to 4:10 23.12 23.26 23.29 23.23 23.35 23.20
11/1/2021 04:00 to 3:10 23.31 23.44 23.36 23.41 23.39 23.29
11/1/2021 03:00 to 2:10 23.42 23.26 23.36 23.18 23.35 23.28
11/1/2021 02:00 to 1:10 23.28 23.44 23.31 23.44 23.30 23.34
11/1/2021 01:00 to 0:10 23.43 23.34 23.40 23.53 23.57 23.52
11/1/2021 00:00 to 23:10 23.53 23.53 23.36 23.44 23.46 23.52
10/31/2021 23:00 to 22:10 23.43 23.52 23.53 23.38 23.40 23.41
10/31/2021 22:00 to 21:10 23.51 23.37 23.31 23.55 23.27 23.47
10/31/2021 21:00 to 20:10 23.39 23.30 23.37 23.41 23.32 23.28
10/31/2021 20:00 to 19:10 23.30 23.27 23.38 23.36 23.28 23.34
10/31/2021 19:00 to 18:10 23.33 23.35 23.21 23.31 23.27 23.34
10/31/2021 18:00 to 17:10 23.17 23.16 23.17 23.24 23.16 23.12
10/31/2021 17:00 to 16:10 23.13 23.12 23.12 23.30 23.17 23.14
10/31/2021 16:00 to 15:10 23.14 23.15 23.31 23.23 23.18 23.20
10/31/2021 15:00 to 14:10 23.23 23.23 23.31 23.27 23.20 23.40
10/31/2021 14:00 to 13:10 23.18 23.20 23.12 23.11 22.87 22.97
10/31/2021 13:00 to 12:10 22.82 22.65 22.87 22.78 22.68 22.65
10/31/2021 12:00 to 11:10 22.80 22.72 22.67 22.65 22.63 22.70
10/31/2021 11:00 to 10:10 22.72 22.72 22.52 22.70 22.86 22.71
10/31/2021 10:00 to 9:10 22.72 22.80 22.75 22.63 22.67 22.71
10/31/2021 09:00 to 8:10 22.65 22.77 22.71 22.80 22.78 23.00
10/31/2021 08:00 to 7:10 23.02 23.01 22.97 23.05 22.95 23.05
10/31/2021 07:00 to 6:10 23.09 23.03 23.01 23.33 23.09 23.07
10/31/2021 06:00 to 5:10 23.11 23.22 23.14 22.97 23.20 23.16
10/31/2021 05:00 to 4:10 23.23 23.15 23.17 23.32 23.32 23.23
10/31/2021 04:00 to 3:10 23.32 23.13 23.14 23.21 23.24 23.25
10/31/2021 03:00 to 2:10 23.32 23.39 23.31 23.41 23.31 23.29
10/31/2021 02:00 to 1:10 23.46 23.54 23.35 23.40 23.36 23.52
10/31/2021 01:00 to 0:10 23.72 23.72 23.84 23.81 23.95 23.89